Time;durP1;ratioP1;P1;durP2;ratioP2;P2;SDS_P1;SDS_P2;PMS_P1;PMS_P2;Temp;Humidity;BMP_temperature;BMP_pressure;BME280_temperature;BME280_humidity;BME280_pressure;Samples;Min_cycle;Max_cycle;Signal;HPM_P1;HPM_P2
2021/11/30 00:01:08;489097.00;1.63;843.05;48865.00;0.16;85.22;;;;;3.80;1.00;;;;;;2285646;60;1068;-82
2021/11/30 00:03:35;1337347.00;4.46;2340.62;233018.00;0.78;402.74;;;;;3.70;1.00;;;;;;2280767;61;1096;-84
2021/11/30 00:06:04;142513.00;0.48;246.90;9154.00;0.03;16.48;;;;;3.80;1.40;;;;;;2276823;61;2006;-83
2021/11/30 00:08:32;121686.00;0.41;210.99;0.00;0.00;0.62;;;;;4.00;1.00;;;;;;2276944;61;1423;-85
2021/11/30 00:11:02;128110.00;0.43;222.07;0.00;0.00;0.62;;;;;3.90;1.00;;;;;;2277062;61;1013;-83
2021/11/30 00:13:30;286527.00;0.96;494.76;13116.00;0.04;23.35;;;;;3.90;1.00;;;;;;2266913;61;1100;-84
2021/11/30 00:15:58;211373.00;0.70;365.50;0.00;0.00;0.62;;;;;4.00;1.00;;;;;;2277001;61;1403;-81
2021/11/30 00:18:31;209025.00;0.70;361.46;0.00;0.00;0.62;;;;;4.00;1.20;;;;;;2264794;61;1341;-83
2021/11/30 00:20:59;1433557.00;4.78;2518.71;107003.00;0.36;185.66;;;;;3.90;1.10;;;;;;2260729;61;1074;-85
2021/11/30 00:23:27;257721.00;0.86;445.23;104000.00;0.35;180.48;;;;;4.00;2.40;;;;;;2261839;61;1873;-83
2021/11/30 00:25:54;0.00;0.00;0.62;0.00;0.00;0.62;;;;;4.00;1.00;;;;;;2268826;61;1915;-83
2021/11/30 00:28:21;352447.00;1.17;608.07;50359.00;0.17;87.81;;;;;4.00;1.40;;;;;;2268815;61;1482;-85
2021/11/30 00:30:49;1310111.00;4.37;2290.62;111790.00;0.37;193.92;;;;;4.00;1.10;;;;;;2262209;61;1018;-83
2021/11/30 00:33:17;335255.00;1.12;578.52;115277.00;0.38;199.93;;;;;4.00;1.00;;;;;;2268785;61;1053;-83
2021/11/30 00:35:44;20363.00;0.07;35.90;0.00;0.00;0.62;;;;;4.10;1.40;;;;;;2270141;61;1076;-84
2021/11/30 00:38:13;0.00;0.00;0.62;0.00;0.00;0.62;;;;;4.10;1.90;;;;;;2269677;61;1321;-83
2021/11/30 00:40:42;1028970.00;3.43;1783.85;138126.00;0.46;239.34;;;;;4.10;1.00;;;;;;2276945;61;1000;-85
2021/11/30 00:43:10;1682154.00;5.61;2990.80;154196.00;0.51;267.04;;;;;4.10;1.00;;;;;;2264779;61;994;-81
2021/11/30 00:45:41;616038.00;2.05;1061.92;94921.00;0.32;164.80;;;;;4.10;1.00;;;;;;2250515;61;1928;-83
2021/11/30 00:48:10;582116.00;1.94;1003.35;49555.00;0.17;86.42;;;;;4.00;1.80;;;;;;2259601;61;1432;-83
2021/11/30 00:50:42;53400.00;0.18;93.07;0.00;0.00;0.62;;;;;4.10;1.00;;;;;;2260715;61;935;-84
2021/11/30 00:53:10;1327567.00;4.43;2322.65;93855.00;0.31;162.96;;;;;4.10;1.00;;;;;;2260827;61;1036;-86
2021/11/30 00:55:37;512951.00;1.71;884.12;115559.00;0.39;200.42;;;;;3.80;1.00;;;;;;2262583;61;1210;-84
2021/11/30 00:58:06;9560.00;0.03;17.19;0.00;0.00;0.62;;;;;4.00;1.80;;;;;;2268760;61;1440;-85
2021/11/30 01:00:35;222105.00;0.74;383.97;75017.00;0.25;130.43;;;;;4.20;1.00;;;;;;2262609;61;1009;-84
2021/11/30 01:03:02;1022392.00;3.41;1772.17;154443.00;0.51;267.46;;;;;4.10;2.10;;;;;;2268690;61;995;-83
2021/11/30 01:05:29;817713.00;2.73;1412.03;64762.00;0.22;112.71;;;;;4.20;1.00;;;;;;2268731;61;1978;-81
2021/11/30 01:07:57;19943.00;0.07;35.17;0.00;0.00;0.62;;;;;4.50;1.00;;;;;;2269394;61;1060;-85
2021/11/30 01:10:25;312300.00;1.04;539.06;5540.00;0.02;10.22;;;;;4.50;1.00;;;;;;2275487;61;1515;-84
2021/11/30 01:12:52;1620771.00;5.40;2872.50;151475.00;0.50;262.35;;;;;4.70;1.00;;;;;;2276865;61;1632;-84
2021/11/30 01:15:22;942940.00;3.14;1631.67;109910.00;0.37;190.67;;;;;4.70;1.00;;;;;;2270207;61;1155;-82
2021/11/30 01:17:50;20407.00;0.07;35.97;0.00;0.00;0.62;;;;;4.80;2.30;;;;;;2267822;60;1108;-82
2021/11/30 01:20:18;142706.00;0.48;247.24;5321.00;0.02;9.84;;;;;4.80;1.00;;;;;;2284757;60;1558;-84
2021/11/30 01:22:45;1735890.00;5.79;3095.37;255645.00;0.85;441.66;;;;;5.00;1.00;;;;;;2257528;60;1051;-85
2021/11/30 01:25:13;532262.00;1.77;917.39;118665.00;0.40;205.78;;;;;5.20;1.00;;;;;;2269832;61;1918;-85
2021/11/30 01:27:40;255926.00;0.85;442.14;7936.00;0.03;14.37;;;;;5.30;1.00;;;;;;2253167;61;981;-84
2021/11/30 01:30:13;571868.00;1.91;985.67;44420.00;0.15;77.53;;;;;4.90;1.00;;;;;;2248892;61;1489;-83
2021/11/30 01:32:42;1568426.00;5.23;2772.55;213594.00;0.71;369.32;;;;;4.70;1.00;;;;;;2264970;61;1005;-83
2021/11/30 01:35:10;1049464.00;3.50;1820.28;132308.00;0.44;229.31;;;;;4.70;1.00;;;;;;2252779;61;1096;-83
2021/11/30 01:37:39;609862.00;2.03;1051.25;111792.00;0.37;193.92;;;;;4.80;1.00;;;;;;2244712;61;1098;-83
2021/11/30 01:40:08;81495.00;0.27;141.62;0.00;0.00;0.62;;;;;4.90;1.00;;;;;;2241422;61;1496;-84
2021/11/30 01:42:35;395184.00;1.32;681.53;68403.00;0.23;119.00;;;;;4.90;1.00;;;;;;2248522;61;1030;-82
2021/11/30 01:45:06;1036228.00;3.45;1796.74;132636.00;0.44;229.87;;;;;4.60;1.00;;;;;;2249374;61;1910;-82
2021/11/30 01:47:52;1550157.00;5.17;2737.86;207322.00;0.69;358.53;;;;;4.60;1.00;;;;;;2254421;61;994;-82
2021/11/30 01:50:20;564959.00;1.88;973.75;96796.00;0.32;168.04;;;;;4.40;1.00;;;;;;2257863;61;1501;-83
2021/11/30 01:52:49;38513.00;0.13;67.32;0.00;0.00;0.62;;;;;4.30;1.00;;;;;;2251630;61;1054;-83
2021/11/30 01:55:17;832409.00;2.77;1437.70;111964.00;0.37;194.22;;;;;4.10;1.00;;;;;;2244782;61;1009;-82
2021/11/30 01:57:44;1425889.00;4.75;2504.43;61592.00;0.21;107.23;;;;;4.00;1.00;;;;;;2257830;61;1712;-82
2021/11/30 02:00:13;897752.00;2.99;1552.17;135931.00;0.45;235.56;;;;;4.20;1.00;;;;;;2260499;61;1358;-82
2021/11/30 02:02:41;83108.00;0.28;144.41;0.00;0.00;0.62;;;;;4.20;1.00;;;;;;2260460;61;1061;-82
2021/11/30 02:05:09;666146.00;2.22;1148.58;88550.00;0.30;153.80;;;;;4.30;1.00;;;;;;2256847;61;1998;-83
2021/11/30 02:07:38;1658512.00;5.53;2945.09;319717.00;1.07;551.81;;;;;4.50;1.00;;;;;;2267037;61;974;-84
2021/11/30 02:10:08;1059329.00;3.53;1837.84;130582.00;0.44;226.33;;;;;4.50;1.00;;;;;;2261889;61;1410;-79
2021/11/30 02:12:36;232223.00;0.77;401.37;98218.00;0.33;170.50;;;;;4.40;1.00;;;;;;2261769;61;1150;-82
2021/11/30 02:15:03;254003.00;0.85;438.84;103300.00;0.34;179.27;;;;;4.30;1.00;;;;;;2270936;61;1116;-84
2021/11/30 02:17:30;200606.00;0.67;346.97;96359.00;0.32;167.29;;;;;4.50;1.00;;;;;;2274742;60;1156;-82
2021/11/30 02:19:59;530218.00;1.77;913.87;115778.00;0.39;200.80;;;;;4.60;1.00;;;;;;2285226;60;1352;-83
2021/11/30 02:22:27;382901.00;1.28;660.41;138712.00;0.46;240.35;;;;;4.50;1.00;;;;;;2278097;60;1030;-84
2021/11/30 02:24:54;140126.00;0.47;242.79;12863.00;0.04;22.91;;;;;4.40;1.00;;;;;;2274800;60;1179;-83
2021/11/30 02:27:23;25760.00;0.09;45.24;0.00;0.00;0.62;;;;;4.50;1.00;;;;;;2284884;60;1931;-82
2021/11/30 02:29:51;15807.00;0.05;28.01;0.00;0.00;0.62;;;;;4.30;1.00;;;;;;2285161;60;1284;-83
2021/11/30 02:32:20;0.00;0.00;0.62;0.00;0.00;0.62;;;;;4.20;1.00;;;;;;2285214;60;1083;-84
2021/11/30 02:34:47;49906.00;0.17;87.02;0.00;0.00;0.62;;;;;4.40;1.00;;;;;;2278030;60;1050;-80
2021/11/30 02:37:23;83511.00;0.28;145.10;0.00;0.00;0.62;;;;;4.70;1.40;;;;;;2274704;60;996;-81
2021/11/30 02:39:50;106829.00;0.36;185.36;39267.00;0.13;68.62;;;;;4.80;1.00;;;;;;2285111;60;1352;-82
2021/11/30 02:42:17;137674.00;0.46;238.56;57070.00;0.19;99.41;;;;;4.60;1.00;;;;;;2284766;60;1713;-83
2021/11/30 02:44:44;0.00;0.00;0.62;0.00;0.00;0.62;;;;;4.20;1.00;;;;;;2285193;60;1777;-82
2021/11/30 02:47:13;64221.00;0.21;111.77;0.00;0.00;0.62;;;;;4.20;1.00;;;;;;2285012;60;1911;-85
2021/11/30 02:49:42;952266.00;3.17;1648.11;126856.00;0.42;219.91;;;;;4.30;1.00;;;;;;2285197;60;1467;-83
2021/11/30 02:52:11;895245.00;2.98;1547.77;30851.00;0.10;54.06;;;;;4.20;1.00;;;;;;2284710;60;1147;-83
2021/11/30 02:54:42;0.00;0.00;0.62;0.00;0.00;0.62;;;;;4.20;1.00;;;;;;2285135;60;1148;-83
2021/11/30 02:57:10;87194.00;0.29;151.46;0.00;0.00;0.62;;;;;4.40;1.00;;;;;;2285010;60;1635;-83
2021/11/30 02:59:41;128582.00;0.43;222.88;0.00;0.00;0.62;;;;;4.30;1.00;;;;;;2277787;60;1285;-84
2021/11/30 03:02:12;875999.00;2.92;1514.00;53956.00;0.18;94.03;;;;;4.10;1.00;;;;;;2278702;60;1012;-84
2021/11/30 03:04:40;1546316.00;5.15;2730.58;216715.00;0.72;374.69;;;;;4.10;1.00;;;;;;2285748;60;993;-82
2021/11/30 03:07:11;23884.00;0.08;42.00;0.00;0.00;0.62;;;;;3.90;1.00;;;;;;2285820;60;1986;-83
2021/11/30 03:09:41;35893.00;0.12;62.78;0.00;0.00;0.62;;;;;3.80;1.00;;;;;;2280954;61;1317;-84
2021/11/30 03:12:10;361201.00;1.20;623.11;47267.00;0.16;82.46;;;;;3.70;1.00;;;;;;2269035;61;1067;-81
2021/11/30 03:14:37;32942.00;0.11;57.68;0.00;0.00;0.62;;;;;3.80;1.00;;;;;;2262389;61;1128;-83
2021/11/30 03:17:05;1501042.00;5.00;2645.08;238800.00;0.80;412.69;;;;;3.80;1.00;;;;;;2262106;61;1032;-82
2021/11/30 03:19:32;1501977.00;5.01;2646.84;163828.00;0.55;283.63;;;;;3.90;1.00;;;;;;2262358;61;1326;-81
2021/11/30 03:22:01;504911.00;1.68;870.28;155746.00;0.52;269.71;;;;;3.90;1.00;;;;;;2269056;61;945;-82
2021/11/30 03:24:28;275943.00;0.92;476.56;26499.00;0.09;46.52;;;;;4.20;1.00;;;;;;2264956;61;1141;-80
2021/11/30 03:26:57;146593.00;0.49;253.94;0.00;0.00;0.62;;;;;4.10;1.00;;;;;;2261547;61;1910;-81
2021/11/30 03:29:24;578464.00;1.93;997.05;58626.00;0.20;102.10;;;;;4.40;1.00;;;;;;2265049;61;1441;-83
2021/11/30 03:31:58;674105.00;2.25;1162.36;115666.00;0.39;200.61;;;;;4.40;1.00;;;;;;2264934;61;1588;-82
2021/11/30 03:34:24;359735.00;1.20;620.59;89280.00;0.30;155.06;;;;;4.30;1.00;;;;;;2264945;61;1072;-81
2021/11/30 03:36:54;16233.00;0.05;28.75;0.00;0.00;0.62;;;;;4.40;1.00;;;;;;2264908;61;1766;-83
2021/11/30 03:39:23;1768570.00;5.90;3159.45;236894.00;0.79;409.41;;;;;4.60;1.00;;;;;;2264866;61;1340;-83
2021/11/30 03:41:52;1005491.00;3.35;1742.20;95677.00;0.32;166.11;;;;;4.50;1.00;;;;;;2269609;61;1002;-84
2021/11/30 03:44:21;138843.00;0.46;240.58;6575.00;0.02;12.01;;;;;4.40;1.00;;;;;;2273745;61;1108;-83
2021/11/30 03:46:50;97045.00;0.32;168.47;0.00;0.00;0.62;;;;;4.40;1.00;;;;;;2269039;60;2002;-83
2021/11/30 03:49:17;472831.00;1.58;815.06;48844.00;0.16;85.19;;;;;4.20;1.00;;;;;;2276852;60;1423;-82
2021/11/30 03:51:44;1702207.00;5.67;3029.71;211498.00;0.70;365.71;;;;;4.20;1.00;;;;;;2277068;61;1095;-83
2021/11/30 03:54:11;510439.00;1.70;879.80;109996.00;0.37;190.82;;;;;4.20;1.00;;;;;;2268897;61;1080;-81
2021/11/30 03:56:39;390619.00;1.30;673.68;119227.00;0.40;206.75;;;;;4.10;1.00;;;;;;2268864;61;1005;-82
2021/11/30 03:59:06;33308.00;0.11;58.31;0.00;0.00;0.62;;;;;4.10;1.00;;;;;;2268805;61;1446;-82
2021/11/30 04:01:36;334689.00;1.12;577.55;66549.00;0.22;115.80;;;;;4.30;1.00;;;;;;2268774;61;1604;-84
2021/11/30 04:04:08;110305.00;0.37;191.36;0.00;0.00;0.62;;;;;4.40;1.00;;;;;;2268952;61;991;-81
2021/11/30 04:06:35;763807.00;2.55;1318.07;148480.00;0.49;257.19;;;;;4.20;1.00;;;;;;2261189;61;1998;-83
2021/11/30 04:09:02;1135935.00;3.79;1974.81;80451.00;0.27;139.82;;;;;4.50;1.00;;;;;;2244983;61;1326;-82
2021/11/30 04:11:29;537241.00;1.79;925.97;131212.00;0.44;227.42;;;;;4.40;1.00;;;;;;2265358;61;986;-82
2021/11/30 04:13:56;72073.00;0.24;125.34;0.00;0.00;0.62;;;;;4.20;1.00;;;;;;2268980;61;1091;-83
2021/11/30 04:16:22;205368.00;0.68;355.16;24225.00;0.08;42.59;;;;;4.00;1.00;;;;;;2262359;61;1116;-81
2021/11/30 04:18:51;1504475.00;5.01;2651.54;187857.00;0.63;325.02;;;;;4.30;1.00;;;;;;2260887;61;1296;-84
2021/11/30 04:21:17;287329.00;0.96;496.14;92925.00;0.31;161.36;;;;;4.40;1.00;;;;;;2260863;61;1774;-84
2021/11/30 04:23:44;117858.00;0.39;204.39;0.00;0.00;0.62;;;;;4.30;1.00;;;;;;2260737;61;1619;-82
2021/11/30 04:26:11;410065.00;1.37;707.11;19781.00;0.07;34.89;;;;;4.50;1.00;;;;;;2261038;61;1915;-83
2021/11/30 04:28:40;1249121.00;4.16;2179.29;115556.00;0.39;200.42;;;;;4.50;1.00;;;;;;2256660;61;1365;-83
2021/11/30 04:31:06;355906.00;1.19;614.01;38883.00;0.13;67.96;;;;;4.70;1.00;;;;;;2263117;61;1030;-81
2021/11/30 04:33:33;89414.00;0.30;155.30;0.00;0.00;0.62;;;;;4.90;1.00;;;;;;2268932;61;1154;-82
2021/11/30 04:36:05;1608115.00;5.36;2848.26;213778.00;0.71;369.64;;;;;5.00;1.00;;;;;;2259833;61;1187;-82
2021/11/30 04:38:32;1011855.00;3.37;1753.48;61305.00;0.20;106.73;;;;;4.90;1.00;;;;;;2277041;61;1475;-83
2021/11/30 04:40:58;208935.00;0.70;361.30;47056.00;0.16;82.09;;;;;4.80;1.00;;;;;;2270169;61;1084;-82
2021/11/30 04:43:33;258705.00;0.86;446.92;21886.00;0.07;38.54;;;;;4.70;1.00;;;;;;2273436;61;981;-81
2021/11/30 04:46:04;95986.00;0.32;166.64;28484.00;0.09;49.96;;;;;4.70;1.00;;;;;;2280671;60;1984;-82
2021/11/30 04:48:32;866875.00;2.89;1498.01;133470.00;0.44;231.31;;;;;4.60;1.00;;;;;;2285401;60;1383;-85
2021/11/30 04:51:01;656723.00;2.19;1132.27;42470.00;0.14;74.16;;;;;4.50;1.00;;;;;;2278437;60;1088;-85
2021/11/30 04:53:31;69979.00;0.23;121.72;0.00;0.00;0.62;;;;;4.30;1.00;;;;;;2276772;61;1060;-81
2021/11/30 04:55:59;62665.00;0.21;109.08;0.00;0.00;0.62;;;;;4.00;1.00;;;;;;2276656;61;1123;-84
2021/11/30 04:58:29;655960.00;2.19;1130.95;34233.00;0.11;59.91;;;;;3.90;1.00;;;;;;2276649;61;1370;-82
2021/11/30 05:00:57;1519908.00;5.07;2680.64;142971.00;0.48;247.69;;;;;3.90;1.00;;;;;;2266714;61;1011;-85
2021/11/30 05:03:24;589922.00;1.97;1016.82;101010.00;0.34;175.32;;;;;4.20;1.00;;;;;;2268533;61;973;-84
2021/11/30 05:05:51;458518.00;1.53;790.44;34077.00;0.11;59.64;;;;;4.40;1.00;;;;;;2268846;61;1036;-83
2021/11/30 05:08:18;183087.00;0.61;316.81;0.00;0.00;0.62;;;;;4.10;1.00;;;;;;2264568;61;1931;-83
2021/11/30 05:10:46;817484.00;2.72;1411.63;130608.00;0.44;226.38;;;;;4.00;1.00;;;;;;2257869;61;1004;-84
2021/11/30 05:13:14;1373415.00;4.58;2407.11;77662.00;0.26;135.00;;;;;4.10;1.00;;;;;;2258149;61;1026;-83
2021/11/30 05:15:41;439650.00;1.47;757.98;103762.00;0.35;180.07;;;;;4.50;1.00;;;;;;2264783;61;1082;-84
2021/11/30 05:18:08;11211.00;0.04;20.05;0.00;0.00;0.62;;;;;4.70;1.00;;;;;;2264696;61;1385;-85
2021/11/30 05:20:36;695798.00;2.32;1199.95;93849.00;0.31;162.95;;;;;4.60;1.00;;;;;;2264975;61;1738;-83
2021/11/30 05:23:03;118759416.00;395.86;67849416.00;48312.00;0.16;84.27;;;;;4.40;1.00;;;;;;2268394;61;1144;-85
2021/11/30 05:25:34;43068.00;0.14;75.20;0.00;0.00;0.62;;;;;4.40;1.00;;;;;;2268996;61;1262;-85
2021/11/30 05:28:03;345522.00;1.15;596.16;0.00;0.00;0.62;;;;;4.50;1.00;;;;;;2274793;60;1983;-82
2021/11/30 05:30:36;1170415.00;3.90;2036.82;236118.00;0.79;408.07;;;;;4.60;1.00;;;;;;2275049;60;1709;-85
2021/11/30 05:33:04;894286.00;2.98;1546.09;139414.00;0.46;241.56;;;;;4.60;1.00;;;;;;2278289;60;931;-83
2021/11/30 05:35:32;0.00;0.00;0.62;0.00;0.00;0.62;;;;;4.50;1.00;;;;;;2285428;60;1043;-83
2021/11/30 05:37:59;98612.00;0.33;171.18;0.00;0.00;0.62;;;;;4.50;1.00;;;;;;2285459;60;1001;-84
2021/11/30 05:40:26;707775.00;2.36;1220.72;40990.00;0.14;71.60;;;;;4.50;1.00;;;;;;2285444;60;1336;-83
2021/11/30 05:42:53;1169529.00;3.90;2035.22;104260.00;0.35;180.92;;;;;4.40;1.00;;;;;;2281647;60;1029;-84
2021/11/30 05:45:22;389626.00;1.30;671.97;66046.00;0.22;114.93;;;;;4.30;1.00;;;;;;2278197;60;1063;-84
2021/11/30 05:47:49;502125.00;1.67;865.48;61225.00;0.20;106.59;;;;;4.20;1.00;;;;;;2280516;60;2000;-84
2021/11/30 05:50:16;1106628.00;3.69;1922.28;91280.00;0.30;158.52;;;;;4.30;1.00;;;;;;2273929;60;1352;-85
2021/11/30 05:52:42;912746.00;3.04;1578.52;239684.00;0.80;414.21;;;;;4.40;1.00;;;;;;2270802;61;1040;-83
2021/11/30 05:55:10;212557.00;0.71;367.54;43530.00;0.15;76.00;;;;;4.40;1.00;;;;;;2276340;60;1035;-84
2021/11/30 05:57:39;201523.00;0.67;348.55;18340.00;0.06;32.40;;;;;4.30;1.00;;;;;;2264468;61;1052;-82
2021/11/30 06:00:09;961320.00;3.20;1664.08;77325.00;0.26;134.42;;;;;4.40;1.00;;;;;;2260617;61;1454;-84
2021/11/30 06:02:52;1665845.00;5.55;2959.25;79444.00;0.26;138.08;;;;;4.30;1.00;;;;;;2254236;61;1097;-84
2021/11/30 06:05:19;553112.00;1.84;953.32;25913.00;0.09;45.51;;;;;4.30;1.00;;;;;;2260511;61;1102;-84
2021/11/30 06:07:47;2386022.00;7.95;4449.43;87780.00;0.29;152.47;;;;;3.90;1.00;;;;;;2260687;61;1999;-82
2021/11/30 06:10:14;3242120.00;10.81;6564.89;68780.00;0.23;119.65;;;;;3.90;1.00;;;;;;2257238;61;1457;-85
2021/11/30 06:12:41;120510024.00;401.70;70897176.00;50890.00;0.17;88.73;;;;;3.70;1.00;;;;;;2258406;61;1048;-84
2021/11/30 06:15:09;3045836.00;10.15;6039.56;77747.00;0.26;135.15;;;;;4.10;1.00;;;;;;2260751;61;1132;-85
2021/11/30 06:17:37;101539.00;0.34;176.23;1476.00;0.00;3.18;;;;;4.30;1.00;;;;;;2278874;60;1068;-85
2021/11/30 06:20:06;872590.00;2.91;1508.03;38496.00;0.13;67.29;;;;;4.20;1.00;;;;;;2274781;60;1398;-84
2021/11/30 06:22:33;1725625.00;5.75;3075.32;234844.00;0.78;405.88;;;;;4.10;1.00;;;;;;2285157;60;973;-85
2021/11/30 06:25:02;564959.00;1.88;973.75;120741.00;0.40;209.36;;;;;4.30;1.00;;;;;;2285214;60;947;-83
2021/11/30 06:27:29;489776.00;1.63;844.22;60268.00;0.20;104.94;;;;;4.20;1.00;;;;;;2276347;61;1993;-85
2021/11/30 06:29:56;605506.00;2.02;1043.73;83538.00;0.28;145.15;;;;;4.10;1.00;;;;;;2266384;61;1503;-84
2021/11/30 06:32:24;574140.00;1.91;989.59;137268.00;0.46;237.86;;;;;4.10;1.00;;;;;;2266451;61;1134;-86
2021/11/30 06:34:53;225757.00;0.75;390.25;25717.00;0.09;45.17;;;;;4.20;1.00;;;;;;2268605;61;1080;-86
2021/11/30 06:37:21;130288.00;0.43;225.83;39878.00;0.13;69.68;;;;;4.20;1.00;;;;;;2261728;61;996;-84
2021/11/30 06:39:51;1621768.00;5.41;2874.41;254038.00;0.85;438.90;;;;;4.00;1.00;;;;;;2264563;61;1329;-82
2021/11/30 06:42:17;407568.00;1.36;702.82;142155.00;0.47;246.29;;;;;4.10;1.00;;;;;;2260606;61;981;-85
2021/11/30 06:44:46;105541.00;0.35;183.14;0.00;0.00;0.62;;;;;3.90;1.00;;;;;;2255406;61;1084;-85
2021/11/30 06:47:13;1051220.00;3.50;1823.40;169458.00;0.56;293.33;;;;;4.10;1.00;;;;;;2238381;61;1916;-83
2021/11/30 06:49:40;969830.00;3.23;1679.11;172339.00;0.57;298.30;;;;;4.20;1.00;;;;;;2244253;61;1386;-82
2021/11/30 06:52:08;333037.00;1.11;574.71;20309.00;0.07;35.81;;;;;4.10;1.00;;;;;;2247415;61;985;-85
2021/11/30 06:54:35;98949.00;0.33;171.76;0.00;0.00;0.62;;;;;4.10;1.00;;;;;;2258493;61;956;-83
2021/11/30 06:57:03;1210305.00;4.03;2108.86;97545.00;0.33;169.33;;;;;4.00;1.00;;;;;;2265119;61;1120;-84
2021/11/30 06:59:30;773152.00;2.58;1334.34;22008.00;0.07;38.75;;;;;3.80;1.00;;;;;;2266055;61;1456;-86
2021/11/30 07:04:27;225533.00;0.75;389.86;0.00;0.00;0.62;;;;;4.10;1.00;;;;;;2266727;60;1426;-83
2021/11/30 07:07:03;176073.00;0.59;304.73;0.00;0.00;0.62;;;;;4.00;1.00;;;;;;2256474;60;1944;-83
2021/11/30 07:09:37;355535.00;1.19;613.37;4245.00;0.01;7.98;;;;;3.80;1.00;;;;;;2265607;60;1364;-81
2021/11/30 07:12:10;428423.00;1.43;738.67;47292.00;0.16;82.50;;;;;3.70;1.00;;;;;;2269960;61;1128;-83
2021/11/30 07:14:37;1390689.00;4.64;2439.07;167365.00;0.56;289.73;;;;;4.10;1.00;;;;;;2269817;60;1002;-83
2021/11/30 07:17:04;211168.00;0.70;365.15;0.00;0.00;0.62;;;;;4.10;1.00;;;;;;2269708;61;1012;-83
2021/11/30 07:19:32;189253.00;0.63;327.42;0.00;0.00;0.62;;;;;3.80;1.00;;;;;;2269762;61;1456;-84
2021/11/30 07:21:59;438344.00;1.46;755.73;17644.00;0.06;31.19;;;;;3.80;1.00;;;;;;2276533;60;1125;-83
2021/11/30 07:24:26;1884642.00;6.28;3390.08;193686.00;0.65;335.05;;;;;4.00;1.00;;;;;;2273028;60;1227;-83
2021/11/30 07:26:54;533175.00;1.78;918.96;94641.00;0.32;164.32;;;;;4.30;1.00;;;;;;2274258;60;1921;-82
2021/11/30 07:29:21;58818.00;0.20;102.43;0.00;0.00;0.62;;;;;4.10;1.00;;;;;;2280196;60;1416;-84
2021/11/30 07:31:48;61820.00;0.21;107.62;0.00;0.00;0.62;;;;;3.90;1.00;;;;;;2276078;60;1028;-84
2021/11/30 07:34:15;2149513.00;7.17;3935.98;230504.00;0.77;398.42;;;;;3.90;1.00;;;;;;2276224;61;1079;-82
2021/11/30 07:36:42;960140.00;3.20;1662.00;148309.00;0.49;256.89;;;;;3.80;1.00;;;;;;2268011;61;967;-85
2021/11/30 07:39:09;21264.00;0.07;37.46;0.00;0.00;0.62;;;;;3.60;1.00;;;;;;2257874;61;1555;-82
2021/11/30 07:41:36;373204.00;1.24;643.74;16282.00;0.05;28.83;;;;;3.80;1.00;;;;;;2255985;61;1006;-82
2021/11/30 07:44:07;774727.00;2.58;1337.08;33780.00;0.11;59.13;;;;;3.80;1.00;;;;;;2247910;61;984;-82
2021/11/30 07:46:34;2148207.00;7.16;3933.22;292631.00;0.98;505.25;;;;;3.90;1.00;;;;;;2238304;61;967;-80
2021/11/30 07:49:00;533715.00;1.78;919.89;100663.00;0.34;174.72;;;;;4.00;1.00;;;;;;2242472;61;2018;-83
2021/11/30 07:54:02;326983.00;1.09;564.30;92941.00;0.31;161.39;;;;;4.00;1.00;;;;;;2284043;61;1294;-85
2021/11/30 08:11:17;296946.00;0.99;512.67;64103.00;0.21;111.57;;;;;4.40;1.00;;;;;;2287120;60;1197;-82
2021/11/30 08:13:44;119851864.00;399.51;69740856.00;79341.00;0.26;137.90;;;;;4.20;1.00;;;;;;2272558;61;972;-85
2021/11/30 08:16:11;919731.00;3.07;1590.80;112827.00;0.38;195.71;;;;;4.30;1.00;;;;;;2260656;61;979;-84
2021/11/30 08:18:38;532745.00;1.78;918.22;149357.00;0.50;258.70;;;;;4.50;1.00;;;;;;2256677;61;1401;-83
2021/11/30 08:21:06;81327.00;0.27;141.33;13686.00;0.05;24.33;;;;;4.40;1.00;;;;;;2256792;61;950;-83
2021/11/30 08:23:33;210264.00;0.70;363.59;24385.00;0.08;42.86;;;;;4.20;1.00;;;;;;2248666;61;1007;-85
2021/11/30 08:26:00;94631.00;0.32;164.30;0.00;0.00;0.62;;;;;4.20;1.00;;;;;;2244485;61;998;-82
2021/11/30 08:28:28;313745.00;1.05;541.55;97417.00;0.32;169.11;;;;;4.40;1.00;;;;;;2238283;61;2001;-84
2021/11/30 08:30:56;336009.00;1.12;579.81;33110.00;0.11;57.97;;;;;4.40;1.00;;;;;;2239628;61;1006;-84
2021/11/30 08:33:23;1242454.00;4.14;2167.17;205245.00;0.68;354.95;;;;;4.60;1.00;;;;;;2257731;61;1085;-80
2021/11/30 08:35:51;552438.00;1.84;952.16;100556.00;0.34;174.53;;;;;4.60;1.00;;;;;;2263858;61;1097;-80
2021/11/30 08:38:19;448119.00;1.49;772.55;0.00;0.00;0.62;;;;;4.50;1.00;;;;;;2257844;61;1443;-83
2021/11/30 08:45:43;445611.00;1.49;768.23;49497.00;0.16;86.32;;;;;4.30;1.00;;;;;;2291088;60;1350;-83
2021/11/30 08:48:10;882345.00;2.94;1525.13;82098.00;0.27;142.66;;;;;4.40;1.00;;;;;;2289474;60;2017;-80
2021/11/30 08:53:05;134393.00;0.45;232.90;0.00;0.00;0.62;;;;;4.70;1.00;;;;;;2286961;60;1392;-80
2021/11/30 08:55:32;424913.00;1.42;732.64;39455.00;0.13;68.95;;;;;4.90;1.00;;;;;;2285395;60;1154;-81
2021/11/30 08:57:59;1307792.00;4.36;2286.37;80244.00;0.27;139.46;;;;;4.70;1.00;;;;;;2285181;60;1175;-80
2021/11/30 09:00:28;254320.00;0.85;439.38;98842.00;0.33;171.57;;;;;4.80;1.00;;;;;;2285453;60;1420;-81
2021/11/30 09:02:57;23483.00;0.08;41.30;0.00;0.00;0.62;;;;;4.80;1.00;;;;;;2278284;60;1044;-82
2021/11/30 09:05:25;23213.00;0.08;40.83;0.00;0.00;0.62;;;;;4.80;1.00;;;;;;2278344;60;1140;-81
2021/11/30 09:07:52;152228.00;0.51;263.65;41142.00;0.14;71.86;;;;;4.70;1.00;;;;;;2285268;60;1927;-80
2021/11/30 09:10:20;92617.00;0.31;160.83;9193.00;0.03;16.55;;;;;4.40;1.00;;;;;;2285332;60;1372;-82
2021/11/30 09:12:47;29868.00;0.10;52.35;0.00;0.00;0.62;;;;;4.50;1.00;;;;;;2285326;60;1096;-81
2021/11/30 09:15:15;1252012.00;4.17;2184.55;159195.00;0.53;275.65;;;;;4.40;1.00;;;;;;2285331;60;1317;-83
2021/11/30 09:17:42;1259313.00;4.20;2197.83;140241.00;0.47;242.99;;;;;4.40;1.00;;;;;;2285379;60;1137;-83
2021/11/30 09:20:12;1367645.00;4.56;2396.45;208946.00;0.70;361.32;;;;;4.50;1.00;;;;;;2284978;60;1452;-80
2021/11/30 09:22:39;1260291.00;4.20;2199.61;289999.00;0.97;500.73;;;;;4.70;1.00;;;;;;2285320;60;1698;-80
2021/11/30 09:25:07;279937.00;0.93;483.43;105782.00;0.35;183.55;;;;;4.90;1.00;;;;;;2284811;60;1019;-78
2021/11/30 09:27:34;147463.00;0.49;255.44;0.00;0.00;0.62;;;;;4.70;1.00;;;;;;2285356;60;2033;-80
2021/11/30 09:30:02;304588.00;1.02;525.81;7235.00;0.02;13.16;;;;;4.60;1.00;;;;;;2278004;60;1476;-82
2021/11/30 09:32:31;169304.00;0.56;293.07;0.00;0.00;0.62;;;;;4.50;1.00;;;;;;2285361;60;967;-80
2021/11/30 09:34:58;87427.00;0.29;151.86;13855.00;0.05;24.63;;;;;4.60;1.00;;;;;;2278184;60;1004;-82
2021/11/30 09:37:27;16265.00;0.05;28.80;0.00;0.00;0.62;;;;;4.90;1.00;;;;;;2285366;60;1087;-81
2021/11/30 09:39:54;107489.00;0.36;186.50;0.00;0.00;0.62;;;;;5.10;1.00;;;;;;2285101;60;1265;-81
2021/11/30 09:42:22;46760.00;0.16;81.58;0.00;0.00;0.62;;;;;4.80;1.00;;;;;;2274847;60;996;-79
2021/11/30 09:44:49;68301.00;0.23;118.82;0.00;0.00;0.62;;;;;5.00;1.00;;;;;;2284889;60;1688;-80
2021/11/30 09:47:16;128940.00;0.43;223.50;0.00;0.00;0.62;;;;;4.90;1.00;;;;;;2278008;60;1562;-79
2021/11/30 09:49:45;6768.00;0.02;12.35;0.00;0.00;0.62;;;;;4.90;1.00;;;;;;2285219;60;2022;-79
2021/11/30 09:52:12;39381.00;0.13;68.82;0.00;0.00;0.62;;;;;5.00;1.00;;;;;;2285156;60;1245;-79
2021/11/30 09:54:41;108912.00;0.36;188.95;0.00;0.00;0.62;;;;;4.80;1.00;;;;;;2285192;60;1032;-81
2021/11/30 09:57:08;90889.00;0.30;157.84;0.00;0.00;0.62;;;;;5.00;1.00;;;;;;2285007;60;1626;-81
2021/11/30 09:59:35;19946.00;0.07;35.18;0.00;0.00;0.62;;;;;5.20;1.00;;;;;;2284899;60;1394;-82
2021/11/30 10:02:02;113603.00;0.38;197.05;0.00;0.00;0.62;;;;;5.50;1.00;;;;;;2285151;60;1285;-82
2021/11/30 10:04:28;61984.00;0.21;107.91;0.00;0.00;0.62;;;;;5.30;1.00;;;;;;2278071;60;1686;-81
2021/11/30 10:06:55;26274.00;0.09;46.13;0.00;0.00;0.62;;;;;5.40;1.00;;;;;;2285297;60;1168;-84
2021/11/30 10:09:24;29085.00;0.10;51.00;0.00;0.00;0.62;;;;;5.80;1.00;;;;;;2277646;60;2003;-82
2021/11/30 10:12:01;110773.00;0.37;192.16;0.00;0.00;0.62;;;;;5.60;1.00;;;;;;2285145;60;1133;-81